createdAt,value
2023-02-06T00:01:16.455Z,93.12
2023-02-06T00:03:43.245Z,93.10
2023-02-06T00:06:10.459Z,92.94
2023-02-06T00:08:37.268Z,93.15
2023-02-06T00:11:07.612Z,93.41
2023-02-06T00:13:35.887Z,92.63
2023-02-06T00:16:03.737Z,92.26
2023-02-06T00:18:30.727Z,92.24
2023-02-06T00:20:58.160Z,92.70
2023-02-06T00:23:24.906Z,93.53
2023-02-06T00:25:51.677Z,92.82
2023-02-06T00:28:18.698Z,93.24
2023-02-06T00:30:48.971Z,92.78
2023-02-06T00:33:16.144Z,93.02
2023-02-06T00:35:42.897Z,93.35
2023-02-06T00:38:11.722Z,92.94
2023-02-06T00:40:38.950Z,93.04
2023-02-06T00:43:06.283Z,93.13
2023-02-06T00:45:33.576Z,93.10
2023-02-06T00:48:01.240Z,93.28
2023-02-06T00:50:28.172Z,93.90
2023-02-06T00:52:55.000Z,93.76
2023-02-06T00:55:22.146Z,93.44
2023-02-06T00:57:49.053Z,93.99
2023-02-06T01:00:16.845Z,93.99
2023-02-06T01:02:43.796Z,94.09
2023-02-06T01:05:11.102Z,94.37
2023-02-06T01:07:40.869Z,94.11
2023-02-06T01:10:11.341Z,93.47
2023-02-06T01:12:38.240Z,93.72
2023-02-06T01:15:08.225Z,93.88
2023-02-06T01:17:35.078Z,94.78
2023-02-06T01:20:02.464Z,94.65
2023-02-06T01:22:29.318Z,94.20
2023-02-06T01:24:56.135Z,95.04
2023-02-06T01:27:22.926Z,94.93
2023-02-06T01:29:49.720Z,94.67
2023-02-06T01:32:16.833Z,94.49
2023-02-06T01:34:43.753Z,94.71
2023-02-06T01:37:10.662Z,95.22
2023-02-06T01:39:37.578Z,94.95
2023-02-06T01:42:04.766Z,95.13
2023-02-06T01:44:33.637Z,94.98
2023-02-06T01:47:00.534Z,94.80
2023-02-06T01:49:45.909Z,95.19
2023-02-06T01:52:24.592Z,95.10
2023-02-06T01:54:57.725Z,95.30
2023-02-06T01:57:27.250Z,96.14
2023-02-06T02:00:00.844Z,95.65
2023-02-06T02:02:29.394Z,95.70
2023-02-06T02:04:57.641Z,95.23
2023-02-06T02:07:25.773Z,95.07
2023-02-06T02:09:53.546Z,95.25
2023-02-06T02:12:20.860Z,95.78
2023-02-06T02:14:50.836Z,94.81
2023-02-06T02:17:52.025Z,94.64
2023-02-06T02:20:49.870Z,94.82
2023-02-06T02:23:38.582Z,94.64
2023-02-06T02:26:27.499Z,94.67
2023-02-06T02:29:18.373Z,94.17
2023-02-06T02:32:16.426Z,94.45
2023-02-06T02:35:10.875Z,93.93
2023-02-06T02:38:00.843Z,94.19
2023-02-06T02:40:36.652Z,94.22
2023-02-06T02:43:38.545Z,94.32
2023-02-06T02:46:14.830Z,94.29
2023-02-06T02:48:46.532Z,94.41
2023-02-06T02:51:14.808Z,95.19
2023-02-06T02:53:41.577Z,95.00
2023-02-06T02:56:19.862Z,94.94
2023-02-06T02:58:51.619Z,95.14
2023-02-06T03:01:25.235Z,95.05
2023-02-06T03:03:55.759Z,94.62
2023-02-06T03:06:44.585Z,94.77
2023-02-06T03:09:54.098Z,94.57
2023-02-06T03:12:43.378Z,94.33
2023-02-06T03:15:44.537Z,94.40
2023-02-06T03:18:29.899Z,94.14
2023-02-06T03:20:59.146Z,94.41
2023-02-06T03:23:34.818Z,93.94
2023-02-06T03:26:07.770Z,93.55
2023-02-06T03:28:39.689Z,93.80
2023-02-06T03:31:13.722Z,94.14
2023-02-06T03:33:52.696Z,94.00
2023-02-06T03:36:20.521Z,94.18
2023-02-06T03:38:50.262Z,93.83
2023-02-06T03:41:27.347Z,94.55
2023-02-06T03:43:55.361Z,94.46
2023-02-06T03:46:26.105Z,94.19
2023-02-06T03:48:59.388Z,94.38
2023-02-06T03:51:33.836Z,94.50
2023-02-06T03:54:04.685Z,94.57
2023-02-06T03:56:44.526Z,94.40
2023-02-06T03:59:11.881Z,94.54
2023-02-06T04:01:52.086Z,94.50
2023-02-06T04:04:21.742Z,94.19
2023-02-06T04:06:48.593Z,94.57
2023-02-06T04:09:15.341Z,94.76
2023-02-06T04:11:42.170Z,95.05
2023-02-06T04:14:08.915Z,94.84
2023-02-06T04:16:35.845Z,95.55
2023-02-06T04:19:02.674Z,95.40
2023-02-06T04:21:29.413Z,95.29
2023-02-06T04:23:56.534Z,95.04
2023-02-06T04:26:23.367Z,95.53
2023-02-06T04:28:50.175Z,95.50
2023-02-06T04:31:17.052Z,95.79
2023-02-06T04:33:43.931Z,95.70
2023-02-06T04:36:10.784Z,95.48
2023-02-06T04:38:37.932Z,95.64
2023-02-06T04:41:06.921Z,96.07
2023-02-06T04:43:34.396Z,95.55
2023-02-06T04:46:01.265Z,96.00
2023-02-06T04:48:28.228Z,95.67
2023-02-06T04:50:55.013Z,95.50
2023-02-06T04:53:21.868Z,96.41
2023-02-06T04:55:49.014Z,96.11
2023-02-06T04:58:15.777Z,96.12
2023-02-06T05:00:42.581Z,96.12
2023-02-06T05:03:09.348Z,96.55
2023-02-06T05:05:36.403Z,95.84
2023-02-06T05:08:03.296Z,95.80
2023-02-06T05:10:30.373Z,95.77
2023-02-06T05:12:57.225Z,95.84
2023-02-06T05:15:24.221Z,96.19
2023-02-06T05:17:51.110Z,96.27
2023-02-06T05:20:18.035Z,96.33
2023-02-06T05:22:45.018Z,96.84
2023-02-06T05:25:11.793Z,97.22
2023-02-06T05:27:38.563Z,96.33
2023-02-06T05:30:06.051Z,96.68
2023-02-06T05:32:32.817Z,96.40
2023-02-06T05:34:59.614Z,96.95
2023-02-06T05:37:26.577Z,96.95
2023-02-06T05:39:53.395Z,96.96
2023-02-06T05:42:20.212Z,97.18
2023-02-06T05:44:47.084Z,96.92
2023-02-06T05:47:13.986Z,97.19
2023-02-06T05:49:40.997Z,97.22
2023-02-06T05:52:07.752Z,97.24
2023-02-06T05:54:34.552Z,97.39
2023-02-06T05:57:01.409Z,97.47
2023-02-06T05:59:28.286Z,97.74
2023-02-06T06:01:55.342Z,97.58
2023-02-06T06:04:22.627Z,97.21
2023-02-06T06:06:49.512Z,97.92
2023-02-06T06:09:16.381Z,97.44
2023-02-06T06:11:43.305Z,97.41
2023-02-06T06:14:11.751Z,97.40
2023-02-06T06:16:39.008Z,97.22
2023-02-06T06:19:05.765Z,97.53
2023-02-06T06:21:34.197Z,97.35
2023-02-06T06:24:02.087Z,97.26
2023-02-06T06:26:29.233Z,97.07
2023-02-06T06:28:56.822Z,96.85
2023-02-06T06:31:23.853Z,97.08
2023-02-06T06:33:50.803Z,97.00
2023-02-06T06:36:17.570Z,97.28
2023-02-06T06:38:44.526Z,97.14
2023-02-06T06:41:11.433Z,97.27
2023-02-06T06:43:38.422Z,97.11
2023-02-06T06:46:06.374Z,97.31
2023-02-06T06:48:33.312Z,97.84
2023-02-06T06:51:00.401Z,97.57
2023-02-06T06:53:27.175Z,97.58
2023-02-06T06:55:54.188Z,98.54
2023-02-06T06:58:21.499Z,98.14
2023-02-06T07:00:48.457Z,98.11
2023-02-06T07:03:15.340Z,98.20
2023-02-06T07:05:42.664Z,97.97
2023-02-06T07:08:09.794Z,98.24
2023-02-06T07:10:36.542Z,98.45
2023-02-06T07:13:03.357Z,98.56
2023-02-06T07:15:30.210Z,98.36
2023-02-06T07:17:57.580Z,98.63
2023-02-06T07:20:24.432Z,98.36
2023-02-06T07:22:51.441Z,98.07
2023-02-06T07:25:20.442Z,98.04
2023-02-06T07:27:47.867Z,97.96
2023-02-06T07:30:15.642Z,98.42
2023-02-06T07:32:42.435Z,97.86
2023-02-06T07:35:09.587Z,97.89
2023-02-06T07:37:36.537Z,97.98
2023-02-06T07:40:05.763Z,97.70
2023-02-06T07:42:33.917Z,97.81
2023-02-06T07:45:00.966Z,97.72
2023-02-06T07:47:27.757Z,97.64
2023-02-06T07:49:54.624Z,97.52
2023-02-06T07:52:22.699Z,97.94
2023-02-06T07:54:49.458Z,98.03
2023-02-06T07:57:16.474Z,98.07
2023-02-06T07:59:43.295Z,97.92
2023-02-06T08:02:12.274Z,98.11
2023-02-06T08:04:39.925Z,98.14
2023-02-06T08:07:09.972Z,98.38
2023-02-06T08:09:37.150Z,98.80
2023-02-06T08:12:04.245Z,99.32
2023-02-06T08:14:31.711Z,99.51
2023-02-06T08:16:58.490Z,99.25
2023-02-06T08:19:25.753Z,99.48
2023-02-06T08:21:53.080Z,99.32
2023-02-06T08:24:19.858Z,99.42
2023-02-06T08:26:47.069Z,99.53
2023-02-06T08:29:14.570Z,99.88
2023-02-06T08:31:43.391Z,99.56
2023-02-06T08:34:13.462Z,100.00
2023-02-06T08:36:42.145Z,100.00
2023-02-06T08:39:14.002Z,99.76
2023-02-06T08:41:43.536Z,100.00
2023-02-06T08:44:16.966Z,99.97
2023-02-06T08:46:46.256Z,99.79
2023-02-06T08:49:19.801Z,100.00
2023-02-06T08:51:49.848Z,99.90
2023-02-06T08:54:20.944Z,100.00
2023-02-06T08:56:48.886Z,100.00
2023-02-06T08:59:18.151Z,100.00
2023-02-06T09:01:45.914Z,100.00
2023-02-06T09:04:14.332Z,100.00
2023-02-06T09:06:44.637Z,100.00
2023-02-06T09:09:12.793Z,100.00
2023-02-06T09:11:40.162Z,100.00
2023-02-06T09:14:08.975Z,100.00
2023-02-06T09:16:38.054Z,100.00
2023-02-06T09:19:06.610Z,100.00
2023-02-06T09:21:35.956Z,100.00
2023-02-06T09:24:07.276Z,100.00
2023-02-06T09:26:44.846Z,100.00
2023-02-06T09:29:20.599Z,100.00
2023-02-06T09:31:47.899Z,100.00
2023-02-06T09:34:15.257Z,100.00
2023-02-06T09:36:42.282Z,100.00
2023-02-06T09:39:09.699Z,100.00
2023-02-06T09:42:18.001Z,100.00
2023-02-06T09:44:51.530Z,100.00
2023-02-06T09:47:30.594Z,100.00
2023-02-06T09:50:02.969Z,100.00
2023-02-06T09:52:52.397Z,100.00
2023-02-06T09:55:48.272Z,100.00
2023-02-06T09:58:50.012Z,100.00
2023-02-06T10:01:42.980Z,100.00
2023-02-06T10:04:28.016Z,100.00
2023-02-06T10:07:07.929Z,100.00
2023-02-06T10:09:45.388Z,100.00
2023-02-06T10:12:27.369Z,100.00
2023-02-06T10:15:18.692Z,100.00
2023-02-06T10:17:54.434Z,100.00
2023-02-06T10:20:54.301Z,100.00
2023-02-06T10:23:30.398Z,100.00
2023-02-06T10:26:17.430Z,100.00
2023-02-06T10:28:57.225Z,100.00
2023-02-06T10:31:34.887Z,100.00
2023-02-06T10:34:19.938Z,100.00
2023-02-06T10:37:15.599Z,100.00
2023-02-06T10:39:59.801Z,100.00
2023-02-06T10:42:35.702Z,100.00
2023-02-06T10:45:36.178Z,100.00
2023-02-06T10:48:15.167Z,100.00
2023-02-06T10:50:52.710Z,100.00
2023-02-06T10:53:29.433Z,100.00
2023-02-06T10:56:17.627Z,100.00
2023-02-06T10:58:56.612Z,100.00
2023-02-06T11:01:27.119Z,100.00
2023-02-06T11:04:17.270Z,100.00
2023-02-06T11:06:47.154Z,100.00
2023-02-06T11:09:14.728Z,100.00
2023-02-06T11:11:48.548Z,100.00
2023-02-06T11:14:22.402Z,100.00
2023-02-06T11:16:50.282Z,100.00
2023-02-06T11:19:25.548Z,100.00
2023-02-06T11:22:04.638Z,100.00
2023-02-06T11:24:31.724Z,100.00
2023-02-06T11:27:03.523Z,99.26
2023-02-06T11:29:37.161Z,98.73
2023-02-06T11:32:07.965Z,99.08
2023-02-06T11:35:00.258Z,98.39
2023-02-06T11:37:40.609Z,97.92
2023-02-06T11:40:19.907Z,95.30
2023-02-06T11:42:50.311Z,95.11
2023-02-06T11:45:23.127Z,94.97
2023-02-06T11:47:49.962Z,94.99
2023-02-06T11:50:29.929Z,94.87
2023-02-06T11:53:20.042Z,93.02
2023-02-06T11:56:16.529Z,93.44
2023-02-06T11:58:44.779Z,93.16
2023-02-06T12:01:21.889Z,92.18
2023-02-06T12:03:58.311Z,92.61
2023-02-06T12:06:32.749Z,91.74
2023-02-06T12:09:10.682Z,91.73
2023-02-06T12:11:48.865Z,90.27
2023-02-06T12:14:29.647Z,90.28
2023-02-06T12:16:59.032Z,89.26
2023-02-06T12:19:33.877Z,88.35
2023-02-06T12:22:07.350Z,89.19
2023-02-06T12:24:40.307Z,89.39
2023-02-06T12:27:28.821Z,89.14
2023-02-06T12:30:27.322Z,89.55
2023-02-06T12:33:05.724Z,89.00
2023-02-06T12:35:47.876Z,88.96
2023-02-06T12:38:40.993Z,87.69
2023-02-06T12:41:32.538Z,88.30
2023-02-06T12:44:09.495Z,86.33
2023-02-06T12:46:36.561Z,86.02
2023-02-06T12:49:24.380Z,84.70
2023-02-06T12:52:00.220Z,83.18
2023-02-06T12:54:47.149Z,84.13
2023-02-06T12:57:23.830Z,84.45
2023-02-06T13:00:28.383Z,83.95
2023-02-06T13:03:16.650Z,80.71
2023-02-06T13:06:10.241Z,80.53
2023-02-06T13:08:56.127Z,80.35
2023-02-06T13:11:29.081Z,80.70
2023-02-06T13:14:24.747Z,80.35
2023-02-06T13:16:55.326Z,79.76
2023-02-06T13:19:30.352Z,79.96
2023-02-06T13:22:19.436Z,79.21
2023-02-06T13:24:50.192Z,78.94
2023-02-06T13:27:23.818Z,79.17
2023-02-06T13:29:54.253Z,78.57
2023-02-06T13:32:24.252Z,78.72
2023-02-06T13:35:14.899Z,78.81
2023-02-06T13:37:46.802Z,78.56
2023-02-06T13:40:24.094Z,78.95
2023-02-06T13:42:57.854Z,79.11
2023-02-06T13:45:32.724Z,77.26
2023-02-06T13:48:14.807Z,76.21
2023-02-06T13:50:44.531Z,76.92
2023-02-06T13:53:36.940Z,76.04
2023-02-06T13:56:44.436Z,75.20
2023-02-06T13:59:21.115Z,76.33
2023-02-06T14:01:48.157Z,76.79
2023-02-06T14:04:24.783Z,77.12
2023-02-06T14:07:12.430Z,77.28
2023-02-06T14:09:56.619Z,76.98
2023-02-06T14:12:50.941Z,75.75
2023-02-06T14:15:56.353Z,75.99
2023-02-06T14:18:35.285Z,74.65
2023-02-06T14:21:35.468Z,75.37
2023-02-06T14:24:34.782Z,74.80
2023-02-06T14:27:39.438Z,75.36
2023-02-06T14:30:42.764Z,74.73
2023-02-06T14:33:48.452Z,73.76
2023-02-06T14:37:16.855Z,73.25
2023-02-06T14:40:12.110Z,71.68
2023-02-06T14:42:43.784Z,72.25
2023-02-06T14:45:38.593Z,72.65
2023-02-06T14:48:30.956Z,72.97
2023-02-06T14:50:59.670Z,72.63
2023-02-06T14:53:33.003Z,72.30
2023-02-06T14:56:21.447Z,72.25
2023-02-06T14:58:51.511Z,72.37
2023-02-06T15:01:18.324Z,72.25
2023-02-06T15:03:47.189Z,71.92
2023-02-06T15:06:38.623Z,72.67
2023-02-06T15:09:07.786Z,73.14
2023-02-06T15:11:35.196Z,73.46
2023-02-06T15:14:16.718Z,73.66
2023-02-06T15:16:50.228Z,73.97
2023-02-06T15:19:27.551Z,74.01
2023-02-06T15:22:07.521Z,73.71
2023-02-06T15:25:05.128Z,74.26
2023-02-06T15:27:36.127Z,73.88
2023-02-06T15:30:22.739Z,73.93
2023-02-06T15:32:53.812Z,73.31
2023-02-06T15:35:34.041Z,72.84
2023-02-06T15:38:22.920Z,72.58
2023-02-06T15:40:55.484Z,72.98
2023-02-06T15:43:25.594Z,73.16
2023-02-06T15:46:02.538Z,73.28
2023-02-06T15:48:43.628Z,73.44
2023-02-06T15:51:28.488Z,73.50
2023-02-06T15:54:09.600Z,73.93
2023-02-06T15:56:41.352Z,74.33
2023-02-06T15:59:20.961Z,74.59
2023-02-06T16:01:48.968Z,75.09
2023-02-06T16:04:31.648Z,75.48
2023-02-06T16:07:15.471Z,75.96
2023-02-06T16:09:49.628Z,76.41
2023-02-06T16:12:18.175Z,76.93
2023-02-06T16:14:57.428Z,77.40
2023-02-06T16:17:31.774Z,78.10
2023-02-06T16:20:24.819Z,78.14
2023-02-06T16:22:57.106Z,78.40
2023-02-06T16:25:33.143Z,78.73
2023-02-06T16:28:00.583Z,78.96
2023-02-06T16:30:35.021Z,79.44
2023-02-06T16:33:30.372Z,80.67
2023-02-06T16:35:57.434Z,79.95
2023-02-06T16:38:24.312Z,80.01
2023-02-06T16:40:51.361Z,80.45
2023-02-06T16:43:20.513Z,80.88
2023-02-06T16:45:49.203Z,81.00
2023-02-06T16:48:18.052Z,81.27
2023-02-06T16:50:48.172Z,81.36
2023-02-06T16:53:22.969Z,81.54
2023-02-06T16:55:50.165Z,82.17
2023-02-06T16:58:21.857Z,81.92
2023-02-06T17:00:49.637Z,81.81
2023-02-06T17:03:17.839Z,82.09
2023-02-06T17:05:46.921Z,82.04
2023-02-06T17:08:24.996Z,82.48
2023-02-06T17:10:52.534Z,82.80
2023-02-06T17:13:23.258Z,83.07
2023-02-06T17:15:53.363Z,83.23
2023-02-06T17:18:23.078Z,84.96
2023-02-06T17:20:52.965Z,84.15
2023-02-06T17:23:20.595Z,84.12
2023-02-06T17:25:47.484Z,84.43
2023-02-06T17:28:20.580Z,84.21
2023-02-06T17:30:49.009Z,84.50
2023-02-06T17:33:15.878Z,84.91
2023-02-06T17:35:43.158Z,85.12
2023-02-06T17:38:10.607Z,85.40
2023-02-06T17:40:41.036Z,85.61
2023-02-06T17:43:08.482Z,86.34
2023-02-06T17:45:38.923Z,86.34
2023-02-06T17:48:06.992Z,86.41
2023-02-06T17:50:37.731Z,86.91
2023-02-06T17:53:06.207Z,86.63
2023-02-06T17:55:35.329Z,86.85
2023-02-06T17:58:02.507Z,87.36
2023-02-06T18:00:29.739Z,87.34
2023-02-06T18:02:59.563Z,87.71
2023-02-06T18:05:26.986Z,88.31
2023-02-06T18:07:54.067Z,88.25
2023-02-06T18:10:24.032Z,88.23
2023-02-06T18:12:50.822Z,88.27
2023-02-06T18:15:18.025Z,88.27
2023-02-06T18:17:44.816Z,88.34
2023-02-06T18:20:13.518Z,88.33
2023-02-06T18:22:41.403Z,88.28
2023-02-06T18:25:14.817Z,88.40
2023-02-06T18:27:45.851Z,88.54
2023-02-06T18:30:14.991Z,88.51
2023-02-06T18:32:41.929Z,88.40
2023-02-06T18:35:09.581Z,88.64
2023-02-06T18:37:36.495Z,88.74
2023-02-06T18:40:04.404Z,88.69
2023-02-06T18:42:49.741Z,88.60
2023-02-06T18:45:18.624Z,88.59
2023-02-06T18:47:45.678Z,88.75
2023-02-06T18:50:13.146Z,88.60
2023-02-06T18:52:40.588Z,88.74
2023-02-06T18:55:08.433Z,88.46
2023-02-06T18:57:36.365Z,88.50
2023-02-06T19:00:07.111Z,88.61
2023-02-06T19:02:34.300Z,88.84
2023-02-06T19:05:01.890Z,88.82
2023-02-06T19:07:29.230Z,88.43
2023-02-06T19:09:58.700Z,88.78
2023-02-06T19:12:28.648Z,88.97
2023-02-06T19:14:57.443Z,89.03
2023-02-06T19:17:26.550Z,89.16
2023-02-06T19:19:54.341Z,89.16
2023-02-06T19:22:21.172Z,89.08
2023-02-06T19:24:48.150Z,88.98
2023-02-06T19:27:15.011Z,89.35
2023-02-06T19:29:42.308Z,89.47
2023-02-06T19:32:10.317Z,89.68
2023-02-06T19:34:39.915Z,89.73
2023-02-06T19:37:10.374Z,89.67
2023-02-06T19:39:40.354Z,89.84
2023-02-06T19:42:10.439Z,89.59
2023-02-06T19:44:38.015Z,89.76
2023-02-06T19:47:04.964Z,89.81
2023-02-06T19:49:32.304Z,89.93
2023-02-06T19:52:00.722Z,89.97
2023-02-06T19:54:28.007Z,90.21
2023-02-06T19:56:55.256Z,90.45
2023-02-06T19:59:27.538Z,90.50
2023-02-06T20:02:02.698Z,90.70
2023-02-06T20:04:35.043Z,90.58
2023-02-06T20:07:02.805Z,90.59
2023-02-06T20:09:30.644Z,90.92
2023-02-06T20:11:57.967Z,91.48
2023-02-06T20:14:26.003Z,90.97
2023-02-06T20:16:53.050Z,91.15
2023-02-06T20:19:25.020Z,91.02
2023-02-06T20:21:56.679Z,91.15
2023-02-06T20:24:27.780Z,93.45
2023-02-06T20:27:01.765Z,91.92
2023-02-06T20:29:36.588Z,91.48
2023-02-06T20:32:05.695Z,91.74
2023-02-06T20:34:33.701Z,91.48
2023-02-06T20:37:00.543Z,91.68
2023-02-06T20:39:27.744Z,91.69
2023-02-06T20:41:54.785Z,92.02
2023-02-06T20:44:22.062Z,91.89
2023-02-06T20:46:49.873Z,91.77
2023-02-06T20:49:26.474Z,91.78
2023-02-06T20:51:53.832Z,92.18
2023-02-06T20:54:21.842Z,92.07
2023-02-06T20:56:48.992Z,92.11
2023-02-06T20:59:20.577Z,91.93
2023-02-06T21:01:48.096Z,92.05
2023-02-06T21:04:16.724Z,92.50
2023-02-06T21:06:44.548Z,92.13
2023-02-06T21:09:12.440Z,93.37
2023-02-06T21:11:48.858Z,92.97
2023-02-06T21:14:16.963Z,92.69
2023-02-06T21:16:46.504Z,92.69
2023-02-06T21:19:16.725Z,92.92
2023-02-06T21:21:45.989Z,92.75
2023-02-06T21:24:14.105Z,92.69
2023-02-06T21:26:41.081Z,92.79
2023-02-06T21:29:08.320Z,92.79
2023-02-06T21:31:38.549Z,92.34
2023-02-06T21:34:21.526Z,93.30
2023-02-06T21:36:49.065Z,93.40
2023-02-06T21:39:22.084Z,93.96
2023-02-06T21:41:54.019Z,93.72
2023-02-06T21:44:24.159Z,93.49
2023-02-06T21:46:51.806Z,93.80
2023-02-06T21:49:19.519Z,93.59
2023-02-06T21:51:46.729Z,93.72
2023-02-06T21:54:13.570Z,93.49
2023-02-06T21:56:40.346Z,93.47
2023-02-06T21:59:08.224Z,93.66
2023-02-06T22:01:35.736Z,93.69
2023-02-06T22:04:03.587Z,93.64
2023-02-06T22:06:31.056Z,93.33
2023-02-06T22:09:05.323Z,93.49
2023-02-06T22:11:32.973Z,94.08
2023-02-06T22:14:07.004Z,93.73
2023-02-06T22:16:34.228Z,94.73
2023-02-06T22:19:01.091Z,94.63
2023-02-06T22:21:30.382Z,94.31
2023-02-06T22:24:01.293Z,94.74
2023-02-06T22:26:30.412Z,94.88
2023-02-06T22:29:01.041Z,94.49
2023-02-06T22:31:32.228Z,94.79
2023-02-06T22:34:00.634Z,94.62
2023-02-06T22:36:31.584Z,94.46
2023-02-06T22:39:03.725Z,94.15
2023-02-06T22:41:30.845Z,94.48
2023-02-06T22:43:58.484Z,94.50
2023-02-06T22:46:30.352Z,94.75
2023-02-06T22:48:57.858Z,94.39
2023-02-06T22:51:25.586Z,94.43
2023-02-06T22:53:52.969Z,94.00
2023-02-06T22:56:27.157Z,94.45
2023-02-06T22:59:19.652Z,94.73
2023-02-06T23:02:00.447Z,94.75
2023-02-06T23:04:30.737Z,94.78
2023-02-06T23:06:57.834Z,94.79
2023-02-06T23:09:32.129Z,94.78
2023-02-06T23:12:01.078Z,95.32
2023-02-06T23:14:30.837Z,95.13
2023-02-06T23:17:00.388Z,95.17
2023-02-06T23:19:28.490Z,95.42
2023-02-06T23:21:55.541Z,94.90
2023-02-06T23:24:22.528Z,95.18
2023-02-06T23:26:51.767Z,95.35
2023-02-06T23:29:20.681Z,95.44
2023-02-06T23:31:48.859Z,95.76
2023-02-06T23:34:18.120Z,95.83
2023-02-06T23:36:45.264Z,95.48
2023-02-06T23:39:12.602Z,95.37
2023-02-06T23:41:39.878Z,95.44
2023-02-06T23:44:08.274Z,95.24
2023-02-06T23:46:37.377Z,95.29
2023-02-06T23:49:05.645Z,95.26
2023-02-06T23:51:33.414Z,94.71
2023-02-06T23:54:00.488Z,95.14
2023-02-06T23:56:30.582Z,95.31
2023-02-06T23:58:59.489Z,95.49
